WetterOnline ( https://www.wetteronline.de )

Wetter aktuell Rheinstetten

Aktuelles Wetter: Rheinstetten (116m)

6-stündlich | Neueste Meldungen
Ortszeit Temperatur Wetter
Di, 24.11. 1:00 3.8° C leicht bewölkt
Mo, 23.11. 19:00 6.8° C bedeckt
Mo, 23.11. 13:00 7.0° C bedeckt
Mo, 23.11. 7:00 5.7° C bewölkt
Mo, 23.11. 1:00 5.6° C bewölkt
So, 22.11. 19:00 5.7° C wolkig
So, 22.11. 13:00 6.4° C wolkig
So, 22.11. 7:00 -1.2° C bewölkt
Ortszeit Temperatur Wetter
Di, 24.11. 2:30 4.2° C Nebel
Di, 24.11. 2:20 4.2° C Nebel
Di, 24.11. 2:10 4.3° C Nebel
Di, 24.11. 2:00 4.3° C Nebel
Di, 24.11. 1:50 4.3° C Nebel
Di, 24.11. 1:40 4.3° C Nebel
Di, 24.11. 1:30 4.0° C fast wolkenlos
Di, 24.11. 1:00 3.8° C leicht bewölkt
Ortszeit Relative Feuchte Sichtweite
Di, 24.11. 1:00 98% 3.2 km
Mo, 23.11. 19:00 85% 24 km
Mo, 23.11. 13:00 78% 22 km
Mo, 23.11. 7:00 74% 35 km
Mo, 23.11. 1:00 75% 24 km
So, 22.11. 19:00 74% 29 km
So, 22.11. 13:00 67% 40 km
So, 22.11. 7:00 96% 15 km
Ortszeit Relative Feuchte Sichtweite
Di, 24.11. 2:30 100% 100 m
Di, 24.11. 2:20 100% -
Di, 24.11. 2:10 100% -
Di, 24.11. 2:00 100% 100 m
Di, 24.11. 1:50 100% -
Di, 24.11. 1:40 100% -
Di, 24.11. 1:30 99% 3.3 km
Di, 24.11. 1:00 98% 3.2 km
Ortszeit Niederschlagsmenge Niederschlagsart
Di, 24.11. 1:00 0.0 l/m2 in 6 Std. -
Mo, 23.11. 19:00 0.4 l/m2 in 12 Std. -
Mo, 23.11. 13:00 0.4 l/m2 in 6 Std. Regen
Mo, 23.11. 7:00 0.1 l/m2 in 12 Std. Sprühregen
Mo, 23.11. 1:00 0.0 l/m2 in 6 Std. -
So, 22.11. 19:00 0.0 l/m2 in 12 Std. -
So, 22.11. 13:00 0.0 l/m2 in 6 Std. -
So, 22.11. 7:00 0.0 l/m2 in 12 Std. -
Ortszeit Niederschlagsmenge Niederschlagsart
Di, 24.11. 2:30 0.0 l/m2 in 1 Std. -
Di, 24.11. 2:20 keine Meldung -
Di, 24.11. 2:10 keine Meldung -
Di, 24.11. 2:00 0.0 l/m2 in 1 Std. -
Di, 24.11. 1:50 keine Meldung -
Di, 24.11. 1:40 keine Meldung -
Di, 24.11. 1:30 0.0 l/m2 in 1 Std. -
Di, 24.11. 1:00 0.0 l/m2 in 1 Std. -
Ortszeit Stärke Spitze Richtung
km/h Bft. km/h Grad Sektor
Di, 24.11. 1:00 11 2 18 20° N
Mo, 23.11. 19:00 6 1 15 30° NO
Mo, 23.11. 13:00 13 3 24 210° SW
Mo, 23.11. 7:00 14 3 25 220° SW
Mo, 23.11. 1:00 15 3 24 230° SW
So, 22.11. 19:00 7 2 25 260° W
So, 22.11. 13:00 14 3 25 230° SW
So, 22.11. 7:00 4 1 14 260° W
Ortszeit Stärke Spitze Richtung
km/h Bft. km/h Grad Sektor
Di, 24.11. 2:30 2 1 9 50° NO
Di, 24.11. 2:20 2 1 - 50° NO
Di, 24.11. 2:10 4 1 - 360° N
Di, 24.11. 2:00 4 1 14 10° N
Di, 24.11. 1:50 4 1 - 10° N
Di, 24.11. 1:40 7 2 - 360° N
Di, 24.11. 1:30 9 2 13 10° N
Di, 24.11. 1:00 11 2 14 20° N
Ortszeit Untergrenze Bedeckung Gattung
total tief tief mittel hoch
Di, 24.11. 1:00 1500 m 3/8 3/8 - - -
Mo, 23.11. 19:00 1500 m 8/8 8/8 - - -
Mo, 23.11. 13:00 810 m 8/8 8/8 - - -
Mo, 23.11. 7:00 810 m 7/8 7/8 - - -
Mo, 23.11. 1:00 1020 m 8/8 5/8 - - -
So, 22.11. 19:00 1110 m 8/8 2/8 - - -
So, 22.11. 13:00 4800 m 8/8 8/8 - - -
So, 22.11. 7:00 6000 m 8/8 7/8 - - -
Ortszeit Bedeckungsgrad in Achtel und Wolkenuntergrenze
Di, 24.11. 2:30 8(<30m)
Di, 24.11. 2:20 8(<30m)
Di, 24.11. 2:10 8(<30m)
Di, 24.11. 2:00 7(<30m)
Di, 24.11. 1:50 7(<30m)
Di, 24.11. 1:40 5(<30m)
Di, 24.11. 1:30 3(<30m) 3(240m)
Di, 24.11. 1:00 3(1500m)
Ortszeit Luftdruck NN (hPa) Tendenz (hPa in 3 Std.)
Di, 24.11. 1:00 1030 - 0,6
Mo, 23.11. 19:00 1030 - 0,2
Mo, 23.11. 13:00 1031 - 0,3
Mo, 23.11. 7:00 1029 + 0,4
Mo, 23.11. 1:00 1029 - 0,2
So, 22.11. 19:00 1029 0,0
So, 22.11. 13:00 1030 - 1,1
So, 22.11. 7:00 1032 - 0,1
Ortszeit Luftdruck NN (hPa) Tendenz (hPa in 3 Std.)
Di, 24.11. 2:30 1029 - 1,3
Di, 24.11. 2:20 1029 keine Meldung
Di, 24.11. 2:10 1029 keine Meldung
Di, 24.11. 2:00 1029 - 1,1
Di, 24.11. 1:50 1029 keine Meldung
Di, 24.11. 1:40 1029 keine Meldung
Di, 24.11. 1:30 1029 - 1,0
Di, 24.11. 1:00 1030 - 0,6
Ortszeit Schneehöhe (cm)
Di, 24.11. 1:00 0
Mo, 23.11. 19:00 0
Mo, 23.11. 13:00 0
Mo, 23.11. 7:00 0
Mo, 23.11. 1:00 0
So, 22.11. 19:00 0
So, 22.11. 13:00 0
So, 22.11. 7:00 0
Ortszeit Schneehöhe (cm)
Di, 24.11. 2:30 0
Di, 24.11. 2:20 0
Di, 24.11. 2:10 0
Di, 24.11. 2:00 0
Di, 24.11. 1:50 0
Di, 24.11. 1:40 0
Di, 24.11. 1:30 0
Di, 24.11. 1:00 0
Link zu dieser Seite / Seite empfehlen

Das Wetter in ...